Mill Creek, PA (17060)

10:53 AM EST on December 05, 2019 (GMT -0500)
jeffs | | Change Station
Active Advisory: Special Statement

Elev 744 ft 40.44 °N, 77.92 °W | Updated 42 seconds ago

Overcast
Overcast
37.2 °F
Feels Like 32 °F
N
6.9
Wind Variable Wind from East
Gusts 15.2 mph

Today
High -- | Low -- °F
--% Chance of Precip.
Yesterday
High -- | Low -- °F
Precip. -- in
Pressure 29.91 in
Visibility 2.5 miles
Clouds Few 2000 ft
Mostly Cloudy 2800 ft
Overcast 3600 ft
Windchill 32 °F
Dew Point 28 °F
Humidity 68%
Rainfall 0.00 in
Snow Depth Not available.
7:19 AM 4:45 PM
Waxing Gibbous, 63% visible
SPECI KAOO 051526Z AUTO 28011KT 2 1/2SM -SN FEW020 BKN028 OVC036 00/M03 A2991 RMK AO2 P0000 T00001033
Pressure 29.91 in
Visibility 2.5 miles
Clouds Few 2000 ft
Mostly Cloudy 2800 ft
Overcast 3600 ft
Windchill 32 °F
Dew Point 28 °F
Humidity 68%
Rainfall 0.00 in
Snow Depth Not available.
7:19 AM 4:45 PM
Waxing Gibbous, 63% visible
SPECI KAOO 051526Z AUTO 28011KT 2 1/2SM -SN FEW020 BKN028 OVC036 00/M03 A2991 RMK AO2 P0000 T00001033

Get Your Daily Forecast Email!

Thanks for signing up!

Be on the lookout for a verification email in your inbox.

You'll start receiving severe weather alerts in your inbox..

×

10-Day Weather Forecast

Almanac

Astronomy

Dec. 05, 2019 Rise Set
Actual Time
Civil Twilight
Nautical Twilight
Astronomical Twilight
Moon
Length of Visible Light
Length of Day
Tomorrow will be .
, % of the Moon is Illuminated

Today's Extremes

State Highs State Lows

Community

WunderPhotos

Category 6

Welcome to Category 6. This is the collective home for Weather Underground's featured writeups by Dr. Jeff Masters (right), Bob Henson (left), Chris Burt, and other regular contributors.

Nearby

Air Quality

  Air Quality AQ Index Pollutant
Not available.

Snow Depth

Station Depth Elevation

Earthquake Activity

City Distance Mag. Time & Date
Minimum magnitude displayed is 2.5.

Coastal Water Temperatures

Place Temperature

Stations

Nearby Weather Stations

Station Location Temp. Windchill Dew Point Humidity Wind Precip. Elev Updated Type
                   

Watches & Warnings

Special Statement
Issued: 10:01 AM EST Dec. 5, 2019 – National Weather Service

... Heavy snow continues through late morning...

Bands of snow showers will continue through mid- morning reducing
visibilities to as low as three quarters of a mile with gusty
winds. Significant accumulations are not expected. Use caution
this morning as untreated surfaces and overpasses may remain
slick.